sensor_id;sensor_type;location;lat;lon;timestamp;P1;durP1;ratioP1;P2;durP2;ratioP2
18214;SDS011;9233;51.312;6.512;2022-08-24T00:01:44;3.90;;;1.20;;
18214;SDS011;9233;51.312;6.512;2022-08-24T00:04:31;1.93;;;1.10;;
18214;SDS011;9233;51.312;6.512;2022-08-24T00:07:18;2.80;;;1.00;;
18214;SDS011;9233;51.312;6.512;2022-08-24T00:10:06;3.60;;;1.30;;
18214;SDS011;9233;51.312;6.512;2022-08-24T00:12:55;3.37;;;1.33;;
18214;SDS011;9233;51.312;6.512;2022-08-24T00:15:42;2.53;;;1.23;;
18214;SDS011;9233;51.312;6.512;2022-08-24T00:18:29;4.00;;;1.60;;
18214;SDS011;9233;51.312;6.512;2022-08-24T00:21:15;1.83;;;1.20;;
18214;SDS011;9233;51.312;6.512;2022-08-24T00:24:03;2.37;;;1.13;;
18214;SDS011;9233;51.312;6.512;2022-08-24T00:26:49;2.83;;;1.23;;
18214;SDS011;9233;51.312;6.512;2022-08-24T00:29:39;3.67;;;1.27;;
18214;SDS011;9233;51.312;6.512;2022-08-24T00:32:26;3.17;;;1.23;;
18214;SDS011;9233;51.312;6.512;2022-08-24T00:35:14;1.57;;;1.17;;
18214;SDS011;9233;51.312;6.512;2022-08-24T00:38:02;4.90;;;1.30;;
18214;SDS011;9233;51.312;6.512;2022-08-24T00:40:49;2.53;;;1.23;;
18214;SDS011;9233;51.312;6.512;2022-08-24T00:43:36;4.53;;;1.73;;
18214;SDS011;9233;51.312;6.512;2022-08-24T00:46:25;2.80;;;1.23;;
18214;SDS011;9233;51.312;6.512;2022-08-24T00:49:17;4.53;;;1.30;;
18214;SDS011;9233;51.312;6.512;2022-08-24T00:52:10;2.53;;;1.27;;
18214;SDS011;9233;51.312;6.512;2022-08-24T00:55:00;3.37;;;1.40;;
18214;SDS011;9233;51.312;6.512;2022-08-24T00:57:50;3.30;;;1.20;;
18214;SDS011;9233;51.312;6.512;2022-08-24T01:00:41;2.07;;;1.20;;
18214;SDS011;9233;51.312;6.512;2022-08-24T01:03:32;2.50;;;1.30;;
18214;SDS011;9233;51.312;6.512;2022-08-24T01:06:19;2.50;;;0.90;;
18214;SDS011;9233;51.312;6.512;2022-08-24T01:09:06;2.00;;;1.10;;
18214;SDS011;9233;51.312;6.512;2022-08-24T01:11:53;3.93;;;1.33;;
18214;SDS011;9233;51.312;6.512;2022-08-24T01:14:40;2.47;;;1.30;;
18214;SDS011;9233;51.312;6.512;2022-08-24T01:17:27;2.20;;;1.30;;
18214;SDS011;9233;51.312;6.512;2022-08-24T01:20:33;3.00;;;1.30;;
18214;SDS011;9233;51.312;6.512;2022-08-24T01:23:28;5.77;;;1.40;;
18214;SDS011;9233;51.312;6.512;2022-08-24T01:26:21;2.57;;;1.37;;
18214;SDS011;9233;51.312;6.512;2022-08-24T01:29:12;4.93;;;1.27;;
18214;SDS011;9233;51.312;6.512;2022-08-24T01:32:01;2.20;;;1.27;;
18214;SDS011;9233;51.312;6.512;2022-08-24T01:34:48;2.10;;;1.13;;
18214;SDS011;9233;51.312;6.512;2022-08-24T01:37:34;1.97;;;1.30;;
18214;SDS011;9233;51.312;6.512;2022-08-24T01:40:23;2.17;;;1.30;;
18214;SDS011;9233;51.312;6.512;2022-08-24T01:43:14;6.67;;;1.77;;
18214;SDS011;9233;51.312;6.512;2022-08-24T01:46:01;3.60;;;1.40;;
18214;SDS011;9233;51.312;6.512;2022-08-24T01:48:48;1.77;;;1.23;;
18214;SDS011;9233;51.312;6.512;2022-08-24T01:51:35;2.80;;;1.20;;
18214;SDS011;9233;51.312;6.512;2022-08-24T01:54:22;3.27;;;1.30;;
18214;SDS011;9233;51.312;6.512;2022-08-24T01:57:11;3.63;;;1.40;;
18214;SDS011;9233;51.312;6.512;2022-08-24T01:59:59;2.73;;;1.37;;
18214;SDS011;9233;51.312;6.512;2022-08-24T02:02:46;1.97;;;1.30;;
18214;SDS011;9233;51.312;6.512;2022-08-24T02:05:33;5.13;;;1.47;;
18214;SDS011;9233;51.312;6.512;2022-08-24T02:08:20;3.20;;;1.47;;
18214;SDS011;9233;51.312;6.512;2022-08-24T02:11:10;3.77;;;1.30;;
18214;SDS011;9233;51.312;6.512;2022-08-24T02:14:00;3.03;;;1.50;;
18214;SDS011;9233;51.312;6.512;2022-08-24T02:16:47;3.17;;;1.60;;
18214;SDS011;9233;51.312;6.512;2022-08-24T02:19:41;3.53;;;1.43;;
18214;SDS011;9233;51.312;6.512;2022-08-24T02:22:28;3.50;;;1.47;;
18214;SDS011;9233;51.312;6.512;2022-08-24T02:25:14;4.80;;;1.20;;
18214;SDS011;9233;51.312;6.512;2022-08-24T02:28:02;3.10;;;1.23;;
18214;SDS011;9233;51.312;6.512;2022-08-24T02:30:50;3.37;;;1.30;;
18214;SDS011;9233;51.312;6.512;2022-08-24T02:33:37;4.17;;;1.33;;
18214;SDS011;9233;51.312;6.512;2022-08-24T02:36:25;3.20;;;1.30;;
18214;SDS011;9233;51.312;6.512;2022-08-24T02:39:15;2.53;;;1.10;;
18214;SDS011;9233;51.312;6.512;2022-08-24T02:42:05;2.07;;;1.20;;
18214;SDS011;9233;51.312;6.512;2022-08-24T02:44:51;1.40;;;1.20;;
18214;SDS011;9233;51.312;6.512;2022-08-24T02:47:40;1.87;;;1.10;;
18214;SDS011;9233;51.312;6.512;2022-08-24T02:50:27;4.00;;;1.60;;
18214;SDS011;9233;51.312;6.512;2022-08-24T02:53:14;2.60;;;1.40;;
18214;SDS011;9233;51.312;6.512;2022-08-24T02:56:02;3.07;;;1.70;;
18214;SDS011;9233;51.312;6.512;2022-08-24T02:58:50;3.87;;;1.33;;
18214;SDS011;9233;51.312;6.512;2022-08-24T03:01:37;2.83;;;1.10;;
18214;SDS011;9233;51.312;6.512;2022-08-24T03:04:25;3.27;;;1.30;;
18214;SDS011;9233;51.312;6.512;2022-08-24T03:07:12;2.03;;;1.37;;
18214;SDS011;9233;51.312;6.512;2022-08-24T03:09:59;2.43;;;1.30;;
18214;SDS011;9233;51.312;6.512;2022-08-24T03:12:46;2.13;;;1.40;;
18214;SDS011;9233;51.312;6.512;2022-08-24T03:15:32;3.33;;;1.30;;
18214;SDS011;9233;51.312;6.512;2022-08-24T03:18:20;3.83;;;1.43;;
18214;SDS011;9233;51.312;6.512;2022-08-24T03:21:08;2.90;;;1.27;;
18214;SDS011;9233;51.312;6.512;2022-08-24T03:24:00;1.30;;;1.20;;
18214;SDS011;9233;51.312;6.512;2022-08-24T03:26:48;4.20;;;1.20;;
18214;SDS011;9233;51.312;6.512;2022-08-24T03:29:35;3.43;;;1.50;;
18214;SDS011;9233;51.312;6.512;2022-08-24T03:32:21;2.47;;;1.50;;
18214;SDS011;9233;51.312;6.512;2022-08-24T03:35:09;3.30;;;1.37;;
18214;SDS011;9233;51.312;6.512;2022-08-24T03:37:57;1.60;;;1.30;;
18214;SDS011;9233;51.312;6.512;2022-08-24T03:40:44;2.77;;;1.60;;
18214;SDS011;9233;51.312;6.512;2022-08-24T03:43:30;3.40;;;1.57;;
18214;SDS011;9233;51.312;6.512;2022-08-24T03:46:38;4.40;;;1.43;;
18214;SDS011;9233;51.312;6.512;2022-08-24T03:49:25;5.23;;;1.80;;
18214;SDS011;9233;51.312;6.512;2022-08-24T03:52:12;4.80;;;1.63;;
18214;SDS011;9233;51.312;6.512;2022-08-24T03:55:04;3.67;;;1.73;;
18214;SDS011;9233;51.312;6.512;2022-08-24T03:57:51;4.83;;;2.00;;
18214;SDS011;9233;51.312;6.512;2022-08-24T04:00:38;5.77;;;2.10;;
18214;SDS011;9233;51.312;6.512;2022-08-24T04:03:29;3.53;;;1.70;;
18214;SDS011;9233;51.312;6.512;2022-08-24T04:06:17;4.70;;;1.97;;
18214;SDS011;9233;51.312;6.512;2022-08-24T04:09:04;3.47;;;1.80;;
18214;SDS011;9233;51.312;6.512;2022-08-24T04:11:55;5.17;;;1.67;;
18214;SDS011;9233;51.312;6.512;2022-08-24T04:14:44;2.47;;;1.50;;
18214;SDS011;9233;51.312;6.512;2022-08-24T04:17:34;3.13;;;1.70;;
18214;SDS011;9233;51.312;6.512;2022-08-24T04:20:22;3.57;;;1.70;;
18214;SDS011;9233;51.312;6.512;2022-08-24T04:23:10;5.10;;;1.90;;
18214;SDS011;9233;51.312;6.512;2022-08-24T04:26:00;4.07;;;2.10;;
18214;SDS011;9233;51.312;6.512;2022-08-24T04:28:50;5.83;;;2.27;;
18214;SDS011;9233;51.312;6.512;2022-08-24T04:31:38;3.37;;;1.80;;
18214;SDS011;9233;51.312;6.512;2022-08-24T04:34:26;2.83;;;2.20;;
18214;SDS011;9233;51.312;6.512;2022-08-24T04:37:13;4.13;;;1.80;;
18214;SDS011;9233;51.312;6.512;2022-08-24T04:40:00;3.33;;;2.40;;
18214;SDS011;9233;51.312;6.512;2022-08-24T04:42:52;7.23;;;2.73;;
18214;SDS011;9233;51.312;6.512;2022-08-24T04:45:40;4.17;;;1.93;;
18214;SDS011;9233;51.312;6.512;2022-08-24T04:48:28;5.63;;;2.00;;
18214;SDS011;9233;51.312;6.512;2022-08-24T04:51:16;5.33;;;1.80;;
18214;SDS011;9233;51.312;6.512;2022-08-24T04:54:04;3.43;;;2.03;;
18214;SDS011;9233;51.312;6.512;2022-08-24T04:56:52;4.97;;;2.10;;
18214;SDS011;9233;51.312;6.512;2022-08-24T04:59:38;3.50;;;2.30;;
18214;SDS011;9233;51.312;6.512;2022-08-24T05:02:27;3.33;;;2.23;;
18214;SDS011;9233;51.312;6.512;2022-08-24T05:05:15;3.33;;;2.23;;
18214;SDS011;9233;51.312;6.512;2022-08-24T05:08:02;5.37;;;2.30;;
18214;SDS011;9233;51.312;6.512;2022-08-24T05:10:49;5.93;;;2.33;;
18214;SDS011;9233;51.312;6.512;2022-08-24T05:13:37;3.77;;;2.50;;
18214;SDS011;9233;51.312;6.512;2022-08-24T05:16:24;4.37;;;2.60;;
18214;SDS011;9233;51.312;6.512;2022-08-24T05:19:13;4.80;;;2.40;;
18214;SDS011;9233;51.312;6.512;2022-08-24T05:22:00;3.50;;;2.50;;
18214;SDS011;9233;51.312;6.512;2022-08-24T05:24:48;9.70;;;2.80;;
18214;SDS011;9233;51.312;6.512;2022-08-24T05:27:36;11.90;;;2.80;;
18214;SDS011;9233;51.312;6.512;2022-08-24T05:30:22;8.87;;;2.80;;
18214;SDS011;9233;51.312;6.512;2022-08-24T05:33:09;6.77;;;2.53;;
18214;SDS011;9233;51.312;6.512;2022-08-24T05:35:59;5.30;;;2.80;;
18214;SDS011;9233;51.312;6.512;2022-08-24T05:38:46;3.73;;;2.20;;
18214;SDS011;9233;51.312;6.512;2022-08-24T05:41:33;2.43;;;2.23;;
18214;SDS011;9233;51.312;6.512;2022-08-24T05:44:28;5.67;;;2.53;;
18214;SDS011;9233;51.312;6.512;2022-08-24T05:47:15;6.90;;;2.10;;
18214;SDS011;9233;51.312;6.512;2022-08-24T05:50:04;5.63;;;2.50;;
18214;SDS011;9233;51.312;6.512;2022-08-24T05:52:53;4.87;;;2.90;;
18214;SDS011;9233;51.312;6.512;2022-08-24T05:55:40;4.27;;;2.60;;
18214;SDS011;9233;51.312;6.512;2022-08-24T05:58:26;4.07;;;2.80;;
18214;SDS011;9233;51.312;6.512;2022-08-24T06:01:14;5.03;;;3.10;;
18214;SDS011;9233;51.312;6.512;2022-08-24T06:04:02;6.93;;;2.80;;
18214;SDS011;9233;51.312;6.512;2022-08-24T06:06:49;6.83;;;2.80;;
18214;SDS011;9233;51.312;6.512;2022-08-24T06:09:38;6.23;;;3.43;;
18214;SDS011;9233;51.312;6.512;2022-08-24T06:12:25;8.13;;;3.20;;
18214;SDS011;9233;51.312;6.512;2022-08-24T06:15:12;7.50;;;3.10;;
18214;SDS011;9233;51.312;6.512;2022-08-24T06:17:59;4.50;;;2.80;;
18214;SDS011;9233;51.312;6.512;2022-08-24T06:20:46;8.77;;;3.37;;
18214;SDS011;9233;51.312;6.512;2022-08-24T06:23:33;6.60;;;3.13;;
18214;SDS011;9233;51.312;6.512;2022-08-24T06:26:22;5.70;;;3.10;;
18214;SDS011;9233;51.312;6.512;2022-08-24T06:29:32;5.77;;;3.27;;
18214;SDS011;9233;51.312;6.512;2022-08-24T06:32:35;6.73;;;3.30;;
18214;SDS011;9233;51.312;6.512;2022-08-24T06:35:23;6.30;;;3.77;;
18214;SDS011;9233;51.312;6.512;2022-08-24T06:38:10;6.47;;;3.63;;
18214;SDS011;9233;51.312;6.512;2022-08-24T06:40:57;7.53;;;3.33;;
18214;SDS011;9233;51.312;6.512;2022-08-24T06:43:45;6.87;;;3.73;;
18214;SDS011;9233;51.312;6.512;2022-08-24T06:46:33;10.13;;;4.23;;
18214;SDS011;9233;51.312;6.512;2022-08-24T06:49:20;7.87;;;3.40;;
18214;SDS011;9233;51.312;6.512;2022-08-24T06:52:08;10.33;;;3.60;;
18214;SDS011;9233;51.312;6.512;2022-08-24T06:54:56;14.50;;;9.20;;
18214;SDS011;9233;51.312;6.512;2022-08-24T06:57:42;11.27;;;5.47;;
18214;SDS011;9233;51.312;6.512;2022-08-24T07:00:30;10.97;;;5.00;;
18214;SDS011;9233;51.312;6.512;2022-08-24T07:03:17;8.10;;;4.03;;
18214;SDS011;9233;51.312;6.512;2022-08-24T07:06:12;9.20;;;3.90;;
18214;SDS011;9233;51.312;6.512;2022-08-24T07:08:59;7.50;;;3.70;;
18214;SDS011;9233;51.312;6.512;2022-08-24T07:11:46;5.33;;;3.33;;
18214;SDS011;9233;51.312;6.512;2022-08-24T07:14:34;7.97;;;3.57;;
18214;SDS011;9233;51.312;6.512;2022-08-24T07:17:22;6.10;;;3.10;;
18214;SDS011;9233;51.312;6.512;2022-08-24T07:20:10;5.77;;;2.83;;
18214;SDS011;9233;51.312;6.512;2022-08-24T07:23:21;6.33;;;2.70;;
18214;SDS011;9233;51.312;6.512;2022-08-24T07:26:10;5.03;;;2.40;;
18214;SDS011;9233;51.312;6.512;2022-08-24T07:28:59;7.10;;;3.47;;
18214;SDS011;9233;51.312;6.512;2022-08-24T07:31:56;10.10;;;4.47;;
18214;SDS011;9233;51.312;6.512;2022-08-24T07:34:53;12.43;;;4.87;;
18214;SDS011;9233;51.312;6.512;2022-08-24T07:37:40;5.43;;;3.90;;
18214;SDS011;9233;51.312;6.512;2022-08-24T07:40:27;7.43;;;3.90;;
18214;SDS011;9233;51.312;6.512;2022-08-24T07:43:15;6.43;;;3.20;;
18214;SDS011;9233;51.312;6.512;2022-08-24T07:46:03;10.67;;;3.80;;
18214;SDS011;9233;51.312;6.512;2022-08-24T07:48:50;9.97;;;3.97;;
18214;SDS011;9233;51.312;6.512;2022-08-24T07:51:38;10.20;;;4.30;;
18214;SDS011;9233;51.312;6.512;2022-08-24T07:54:25;7.93;;;3.83;;
18214;SDS011;9233;51.312;6.512;2022-08-24T07:57:13;6.17;;;3.20;;
18214;SDS011;9233;51.312;6.512;2022-08-24T08:00:00;8.37;;;4.20;;
18214;SDS011;9233;51.312;6.512;2022-08-24T08:02:48;11.37;;;5.57;;
18214;SDS011;9233;51.312;6.512;2022-08-24T08:05:36;8.03;;;4.20;;
18214;SDS011;9233;51.312;6.512;2022-08-24T08:08:25;5.97;;;3.63;;
18214;SDS011;9233;51.312;6.512;2022-08-24T08:11:13;9.10;;;3.07;;
18214;SDS011;9233;51.312;6.512;2022-08-24T08:13:59;7.07;;;3.07;;
18214;SDS011;9233;51.312;6.512;2022-08-24T08:16:46;10.10;;;3.40;;
18214;SDS011;9233;51.312;6.512;2022-08-24T08:19:33;6.07;;;2.20;;
18214;SDS011;9233;51.312;6.512;2022-08-24T08:22:21;7.13;;;2.50;;
18214;SDS011;9233;51.312;6.512;2022-08-24T08:25:50;4.40;;;2.40;;
18214;SDS011;9233;51.312;6.512;2022-08-24T08:28:46;5.13;;;3.07;;
18214;SDS011;9233;51.312;6.512;2022-08-24T08:31:33;5.40;;;3.43;;
18214;SDS011;9233;51.312;6.512;2022-08-24T08:34:21;9.00;;;4.17;;
18214;SDS011;9233;51.312;6.512;2022-08-24T08:37:09;10.13;;;3.73;;
18214;SDS011;9233;51.312;6.512;2022-08-24T08:39:56;7.23;;;3.07;;
18214;SDS011;9233;51.312;6.512;2022-08-24T08:42:47;7.07;;;2.87;;
18214;SDS011;9233;51.312;6.512;2022-08-24T08:45:46;5.23;;;2.47;;
18214;SDS011;9233;51.312;6.512;2022-08-24T08:49:19;5.83;;;2.70;;
18214;SDS011;9233;51.312;6.512;2022-08-24T08:52:24;7.70;;;2.90;;
18214;SDS011;9233;51.312;6.512;2022-08-24T08:55:25;7.43;;;2.80;;
18214;SDS011;9233;51.312;6.512;2022-08-24T08:58:26;5.70;;;2.77;;
18214;SDS011;9233;51.312;6.512;2022-08-24T09:01:23;7.33;;;2.40;;
18214;SDS011;9233;51.312;6.512;2022-08-24T09:04:35;6.03;;;2.90;;
18214;SDS011;9233;51.312;6.512;2022-08-24T09:07:37;5.67;;;2.63;;
18214;SDS011;9233;51.312;6.512;2022-08-24T09:13:47;6.97;;;2.90;;
18214;SDS011;9233;51.312;6.512;2022-08-24T09:16:59;5.93;;;2.60;;
18214;SDS011;9233;51.312;6.512;2022-08-24T09:19:56;7.80;;;2.60;;
18214;SDS011;9233;51.312;6.512;2022-08-24T09:23:04;6.13;;;2.77;;
18214;SDS011;9233;51.312;6.512;2022-08-24T09:25:57;16.37;;;3.37;;
18214;SDS011;9233;51.312;6.512;2022-08-24T09:28:52;11.83;;;3.33;;
18214;SDS011;9233;51.312;6.512;2022-08-24T09:31:48;14.57;;;3.53;;
18214;SDS011;9233;51.312;6.512;2022-08-24T09:34:44;26.17;;;4.93;;
18214;SDS011;9233;51.312;6.512;2022-08-24T09:37:39;24.27;;;4.50;;
18214;SDS011;9233;51.312;6.512;2022-08-24T09:40:37;8.10;;;3.07;;
18214;SDS011;9233;51.312;6.512;2022-08-24T09:47:05;5.33;;;2.03;;
18214;SDS011;9233;51.312;6.512;2022-08-24T09:50:15;4.77;;;2.60;;
18214;SDS011;9233;51.312;6.512;2022-08-24T09:56:47;10.73;;;2.07;;
18214;SDS011;9233;51.312;6.512;2022-08-24T09:59:49;6.07;;;4.30;;
18214;SDS011;9233;51.312;6.512;2022-08-24T10:02:52;6.10;;;2.90;;
18214;SDS011;9233;51.312;6.512;2022-08-24T10:05:59;4.80;;;2.17;;
18214;SDS011;9233;51.312;6.512;2022-08-24T10:09:13;4.27;;;1.80;;
18214;SDS011;9233;51.312;6.512;2022-08-24T10:12:06;3.17;;;2.23;;
18214;SDS011;9233;51.312;6.512;2022-08-24T10:15:03;3.10;;;2.10;;
18214;SDS011;9233;51.312;6.512;2022-08-24T10:17:56;3.80;;;1.93;;
18214;SDS011;9233;51.312;6.512;2022-08-24T10:20:59;3.97;;;1.97;;
18214;SDS011;9233;51.312;6.512;2022-08-24T10:27:28;7.40;;;3.23;;
18214;SDS011;9233;51.312;6.512;2022-08-24T10:30:31;12.43;;;5.90;;
18214;SDS011;9233;51.312;6.512;2022-08-24T10:33:27;9.07;;;4.23;;
18214;SDS011;9233;51.312;6.512;2022-08-24T10:36:33;5.50;;;2.73;;
18214;SDS011;9233;51.312;6.512;2022-08-24T10:39:49;8.10;;;3.00;;
18214;SDS011;9233;51.312;6.512;2022-08-24T10:46:33;7.37;;;3.70;;
18214;SDS011;9233;51.312;6.512;2022-08-24T10:49:44;6.90;;;3.10;;
18214;SDS011;9233;51.312;6.512;2022-08-24T10:53:04;5.10;;;2.50;;
18214;SDS011;9233;51.312;6.512;2022-08-24T10:56:05;4.80;;;2.33;;
18214;SDS011;9233;51.312;6.512;2022-08-24T10:58:57;4.77;;;2.40;;
18214;SDS011;9233;51.312;6.512;2022-08-24T11:02:00;5.90;;;2.50;;
18214;SDS011;9233;51.312;6.512;2022-08-24T11:04:54;5.13;;;3.00;;
18214;SDS011;9233;51.312;6.512;2022-08-24T11:07:52;7.03;;;2.60;;
18214;SDS011;9233;51.312;6.512;2022-08-24T11:10:43;5.67;;;2.40;;
18214;SDS011;9233;51.312;6.512;2022-08-24T11:13:29;6.17;;;2.60;;
18214;SDS011;9233;51.312;6.512;2022-08-24T11:16:21;5.80;;;2.53;;
18214;SDS011;9233;51.312;6.512;2022-08-24T11:19:12;6.57;;;1.67;;
18214;SDS011;9233;51.312;6.512;2022-08-24T11:22:00;5.47;;;2.00;;
18214;SDS011;9233;51.312;6.512;2022-08-24T11:24:48;2.87;;;1.70;;
18214;SDS011;9233;51.312;6.512;2022-08-24T11:27:38;4.03;;;1.80;;
18214;SDS011;9233;51.312;6.512;2022-08-24T11:30:27;5.37;;;2.10;;
18214;SDS011;9233;51.312;6.512;2022-08-24T11:33:23;4.00;;;1.83;;
18214;SDS011;9233;51.312;6.512;2022-08-24T11:36:15;3.63;;;1.77;;
18214;SDS011;9233;51.312;6.512;2022-08-24T11:39:10;4.87;;;1.90;;
18214;SDS011;9233;51.312;6.512;2022-08-24T11:42:02;5.57;;;1.73;;
18214;SDS011;9233;51.312;6.512;2022-08-24T11:44:57;2.37;;;1.50;;
18214;SDS011;9233;51.312;6.512;2022-08-24T11:47:55;2.67;;;1.57;;
18214;SDS011;9233;51.312;6.512;2022-08-24T11:50:50;4.80;;;1.70;;
18214;SDS011;9233;51.312;6.512;2022-08-24T11:53:53;4.67;;;1.97;;
18214;SDS011;9233;51.312;6.512;2022-08-24T11:56:47;2.47;;;1.20;;
18214;SDS011;9233;51.312;6.512;2022-08-24T11:59:41;3.20;;;1.47;;
18214;SDS011;9233;51.312;6.512;2022-08-24T12:02:31;5.80;;;1.70;;
18214;SDS011;9233;51.312;6.512;2022-08-24T12:05:22;3.03;;;1.63;;
18214;SDS011;9233;51.312;6.512;2022-08-24T12:08:14;2.30;;;1.60;;
18214;SDS011;9233;51.312;6.512;2022-08-24T12:11:09;1.50;;;1.40;;
18214;SDS011;9233;51.312;6.512;2022-08-24T12:14:03;2.13;;;1.30;;
18214;SDS011;9233;51.312;6.512;2022-08-24T12:16:54;1.97;;;1.40;;
18214;SDS011;9233;51.312;6.512;2022-08-24T12:19:45;6.10;;;1.50;;
18214;SDS011;9233;51.312;6.512;2022-08-24T12:22:34;2.53;;;1.17;;
18214;SDS011;9233;51.312;6.512;2022-08-24T12:25:21;3.10;;;1.10;;
18214;SDS011;9233;51.312;6.512;2022-08-24T12:28:28;2.47;;;1.20;;
18214;SDS011;9233;51.312;6.512;2022-08-24T12:31:18;3.77;;;1.23;;
18214;SDS011;9233;51.312;6.512;2022-08-24T12:34:09;1.87;;;1.10;;
18214;SDS011;9233;51.312;6.512;2022-08-24T12:37:00;2.30;;;1.30;;
18214;SDS011;9233;51.312;6.512;2022-08-24T12:39:52;3.73;;;1.03;;
18214;SDS011;9233;51.312;6.512;2022-08-24T12:42:42;3.17;;;0.87;;
18214;SDS011;9233;51.312;6.512;2022-08-24T12:45:34;1.80;;;1.10;;
18214;SDS011;9233;51.312;6.512;2022-08-24T12:48:22;1.60;;;0.97;;
18214;SDS011;9233;51.312;6.512;2022-08-24T12:51:15;1.30;;;0.83;;
18214;SDS011;9233;51.312;6.512;2022-08-24T12:54:09;1.30;;;0.80;;
18214;SDS011;9233;51.312;6.512;2022-08-24T12:57:07;2.00;;;1.30;;
18214;SDS011;9233;51.312;6.512;2022-08-24T13:00:00;2.30;;;1.73;;
18214;SDS011;9233;51.312;6.512;2022-08-24T13:02:55;3.33;;;1.67;;
18214;SDS011;9233;51.312;6.512;2022-08-24T13:05:44;1.10;;;1.00;;
18214;SDS011;9233;51.312;6.512;2022-08-24T13:08:35;2.30;;;1.30;;
18214;SDS011;9233;51.312;6.512;2022-08-24T13:11:27;3.67;;;1.50;;
18214;SDS011;9233;51.312;6.512;2022-08-24T13:14:16;1.53;;;1.23;;
18214;SDS011;9233;51.312;6.512;2022-08-24T13:17:11;1.30;;;0.93;;
18214;SDS011;9233;51.312;6.512;2022-08-24T13:23:07;1.13;;;1.00;;
18214;SDS011;9233;51.312;6.512;2022-08-24T13:26:00;1.93;;;1.10;;
18214;SDS011;9233;51.312;6.512;2022-08-24T13:29:04;3.80;;;1.10;;
18214;SDS011;9233;51.312;6.512;2022-08-24T13:31:52;2.63;;;1.00;;
18214;SDS011;9233;51.312;6.512;2022-08-24T13:34:42;1.67;;;1.20;;
18214;SDS011;9233;51.312;6.512;2022-08-24T13:37:31;6.60;;;1.33;;
18214;SDS011;9233;51.312;6.512;2022-08-24T13:40:18;5.57;;;1.30;;
18214;SDS011;9233;51.312;6.512;2022-08-24T13:43:09;1.60;;;1.20;;
18214;SDS011;9233;51.312;6.512;2022-08-24T13:45:58;3.83;;;1.10;;
18214;SDS011;9233;51.312;6.512;2022-08-24T13:48:57;2.30;;;1.00;;
18214;SDS011;9233;51.312;6.512;2022-08-24T13:51:47;3.43;;;1.20;;
18214;SDS011;9233;51.312;6.512;2022-08-24T13:54:39;2.33;;;1.10;;
18214;SDS011;9233;51.312;6.512;2022-08-24T13:57:33;2.10;;;1.03;;
18214;SDS011;9233;51.312;6.512;2022-08-24T14:06:47;1.63;;;1.10;;
18214;SDS011;9233;51.312;6.512;2022-08-24T14:09:39;1.40;;;1.00;;
18214;SDS011;9233;51.312;6.512;2022-08-24T14:12:43;1.37;;;1.20;;
18214;SDS011;9233;51.312;6.512;2022-08-24T14:15:43;4.47;;;1.50;;
18214;SDS011;9233;51.312;6.512;2022-08-24T14:18:37;5.32;;;1.42;;
18214;SDS011;9233;51.312;6.512;2022-08-24T14:21:33;2.08;;;1.15;;
18214;SDS011;9233;51.312;6.512;2022-08-24T14:24:24;1.23;;;1.13;;
18214;SDS011;9233;51.312;6.512;2022-08-24T14:30:38;1.90;;;1.23;;
18214;SDS011;9233;51.312;6.512;2022-08-24T14:33:31;1.77;;;0.98;;
18214;SDS011;9233;51.312;6.512;2022-08-24T14:36:19;1.80;;;1.13;;
18214;SDS011;9233;51.312;6.512;2022-08-24T14:39:08;1.75;;;1.10;;
18214;SDS011;9233;51.312;6.512;2022-08-24T14:42:01;3.63;;;1.15;;
18214;SDS011;9233;51.312;6.512;2022-08-24T14:45:02;1.67;;;1.27;;
18214;SDS011;9233;51.312;6.512;2022-08-24T14:47:55;1.15;;;1.08;;
18214;SDS011;9233;51.312;6.512;2022-08-24T14:50:47;1.58;;;1.33;;
18214;SDS011;9233;51.312;6.512;2022-08-24T14:53:50;2.15;;;1.05;;
18214;SDS011;9233;51.312;6.512;2022-08-24T14:56:47;1.83;;;1.20;;
18214;SDS011;9233;51.312;6.512;2022-08-24T14:59:42;2.80;;;1.10;;
18214;SDS011;9233;51.312;6.512;2022-08-24T15:06:06;4.15;;;1.50;;
18214;SDS011;9233;51.312;6.512;2022-08-24T15:09:07;2.33;;;1.52;;
18214;SDS011;9233;51.312;6.512;2022-08-24T15:11:55;4.07;;;1.73;;
18214;SDS011;9233;51.312;6.512;2022-08-24T15:14:50;2.10;;;1.20;;
18214;SDS011;9233;51.312;6.512;2022-08-24T15:17:41;2.17;;;1.20;;
18214;SDS011;9233;51.312;6.512;2022-08-24T15:20:38;2.08;;;1.30;;
18214;SDS011;9233;51.312;6.512;2022-08-24T15:23:38;1.60;;;1.35;;
18214;SDS011;9233;51.312;6.512;2022-08-24T15:26:37;1.98;;;1.23;;
18214;SDS011;9233;51.312;6.512;2022-08-24T15:29:31;1.38;;;1.20;;
18214;SDS011;9233;51.312;6.512;2022-08-24T15:32:21;1.90;;;1.30;;
18214;SDS011;9233;51.312;6.512;2022-08-24T15:35:21;2.38;;;1.30;;
18214;SDS011;9233;51.312;6.512;2022-08-24T15:38:17;2.90;;;1.40;;
18214;SDS011;9233;51.312;6.512;2022-08-24T15:41:07;3.50;;;1.52;;
18214;SDS011;9233;51.312;6.512;2022-08-24T15:43:59;1.40;;;1.30;;
18214;SDS011;9233;51.312;6.512;2022-08-24T15:46:49;1.85;;;1.45;;
18214;SDS011;9233;51.312;6.512;2022-08-24T15:49:44;2.50;;;1.13;;
18214;SDS011;9233;51.312;6.512;2022-08-24T15:52:37;1.42;;;1.10;;
18214;SDS011;9233;51.312;6.512;2022-08-24T15:55:36;1.70;;;1.33;;
18214;SDS011;9233;51.312;6.512;2022-08-24T15:58:32;1.30;;;1.10;;
18214;SDS011;9233;51.312;6.512;2022-08-24T16:01:21;2.00;;;1.48;;
18214;SDS011;9233;51.312;6.512;2022-08-24T16:07:33;1.70;;;1.10;;
18214;SDS011;9233;51.312;6.512;2022-08-24T16:11:05;2.22;;;1.00;;
18214;SDS011;9233;51.312;6.512;2022-08-24T16:14:09;1.90;;;1.30;;
18214;SDS011;9233;51.312;6.512;2022-08-24T16:16:57;1.40;;;1.10;;
18214;SDS011;9233;51.312;6.512;2022-08-24T16:19:48;2.83;;;1.08;;
18214;SDS011;9233;51.312;6.512;2022-08-24T16:22:36;1.00;;;0.80;;
18214;SDS011;9233;51.312;6.512;2022-08-24T16:25:25;6.05;;;1.42;;
18214;SDS011;9233;51.312;6.512;2022-08-24T16:28:31;2.20;;;1.40;;
18214;SDS011;9233;51.312;6.512;2022-08-24T16:34:37;2.70;;;1.02;;
18214;SDS011;9233;51.312;6.512;2022-08-24T16:37:24;1.67;;;1.10;;
18214;SDS011;9233;51.312;6.512;2022-08-24T16:40:11;4.20;;;1.52;;
18214;SDS011;9233;51.312;6.512;2022-08-24T16:42:58;1.45;;;1.17;;
18214;SDS011;9233;51.312;6.512;2022-08-24T16:45:44;3.03;;;1.40;;
18214;SDS011;9233;51.312;6.512;2022-08-24T16:48:33;5.20;;;4.47;;
18214;SDS011;9233;51.312;6.512;2022-08-24T16:51:20;16.90;;;13.65;;
18214;SDS011;9233;51.312;6.512;2022-08-24T16:54:08;7.10;;;5.60;;
18214;SDS011;9233;51.312;6.512;2022-08-24T16:56:55;5.72;;;3.33;;
18214;SDS011;9233;51.312;6.512;2022-08-24T16:59:43;2.67;;;2.05;;
18214;SDS011;9233;51.312;6.512;2022-08-24T17:02:32;2.55;;;1.60;;
18214;SDS011;9233;51.312;6.512;2022-08-24T17:05:20;1.95;;;1.33;;
18214;SDS011;9233;51.312;6.512;2022-08-24T17:08:07;1.88;;;1.25;;
18214;SDS011;9233;51.312;6.512;2022-08-24T17:10:55;3.53;;;1.50;;
18214;SDS011;9233;51.312;6.512;2022-08-24T17:13:42;1.88;;;1.17;;
18214;SDS011;9233;51.312;6.512;2022-08-24T17:16:28;2.55;;;1.40;;
18214;SDS011;9233;51.312;6.512;2022-08-24T17:19:16;3.35;;;1.30;;
18214;SDS011;9233;51.312;6.512;2022-08-24T17:22:06;1.25;;;1.00;;
18214;SDS011;9233;51.312;6.512;2022-08-24T17:24:53;4.38;;;1.95;;
18214;SDS011;9233;51.312;6.512;2022-08-24T17:27:40;2.40;;;1.20;;
18214;SDS011;9233;51.312;6.512;2022-08-24T17:30:27;2.22;;;1.00;;
18214;SDS011;9233;51.312;6.512;2022-08-24T17:33:14;3.40;;;1.50;;
18214;SDS011;9233;51.312;6.512;2022-08-24T17:36:03;2.20;;;1.27;;
18214;SDS011;9233;51.312;6.512;2022-08-24T17:38:52;1.33;;;1.23;;
18214;SDS011;9233;51.312;6.512;2022-08-24T17:41:40;2.85;;;1.30;;
18214;SDS011;9233;51.312;6.512;2022-08-24T17:44:28;5.05;;;1.10;;
18214;SDS011;9233;51.312;6.512;2022-08-24T17:47:17;6.35;;;1.30;;
18214;SDS011;9233;51.312;6.512;2022-08-24T17:50:04;4.63;;;2.03;;
18214;SDS011;9233;51.312;6.512;2022-08-24T17:52:54;5.80;;;2.50;;
18214;SDS011;9233;51.312;6.512;2022-08-24T17:55:42;12.35;;;7.05;;
18214;SDS011;9233;51.312;6.512;2022-08-24T17:58:28;14.43;;;8.02;;
18214;SDS011;9233;51.312;6.512;2022-08-24T18:01:15;13.20;;;6.72;;
18214;SDS011;9233;51.312;6.512;2022-08-24T18:04:02;6.60;;;4.45;;
18214;SDS011;9233;51.312;6.512;2022-08-24T18:06:49;7.65;;;3.83;;
18214;SDS011;9233;51.312;6.512;2022-08-24T18:09:37;7.68;;;4.18;;